createdAt,value
2023-04-16T00:04:58.878Z,100408.08
2023-04-16T00:10:01.093Z,100409.48
2023-04-16T00:15:03.822Z,100410.27
2023-04-16T00:20:06.614Z,100410.96
2023-04-16T00:25:09.096Z,100413.47
2023-04-16T00:30:12.076Z,100410.54
2023-04-16T00:35:13.854Z,100414.40
2023-04-16T00:40:16.153Z,100417.25
2023-04-16T00:45:18.216Z,100417.98
2023-04-16T00:50:21.114Z,100420.38
2023-04-16T00:55:22.904Z,100421.24
2023-04-16T01:00:25.892Z,100424.73
2023-04-16T01:05:27.875Z,100423.51
2023-04-16T01:10:29.547Z,100425.73
2023-04-16T01:15:31.324Z,100424.16
2023-04-16T01:20:35.862Z,100422.76
2023-04-16T01:25:38.862Z,100417.12
2023-04-16T01:30:41.097Z,100414.48
2023-04-16T01:35:43.335Z,100415.04
2023-04-16T01:40:45.310Z,100416.16
2023-04-16T01:45:46.993Z,100416.52
2023-04-16T01:50:48.761Z,100414.38
2023-04-16T01:55:50.563Z,100415.65
2023-04-16T02:00:52.336Z,100414.33
2023-04-16T02:05:54.391Z,100419.13
2023-04-16T02:10:57.185Z,100426.74
2023-04-16T02:15:59.098Z,100425.84
2023-04-16T02:21:01.250Z,100423.45
2023-04-16T02:26:03.428Z,100428.73
2023-04-16T02:31:05.305Z,100428.58
2023-04-16T02:36:07.406Z,100428.89
2023-04-16T02:41:09.286Z,100431.85
2023-04-16T02:46:11.082Z,100433.95
2023-04-16T02:51:12.915Z,100435.30
2023-04-16T02:56:14.700Z,100435.54
2023-04-16T03:01:17.709Z,100437.21
2023-04-16T03:06:19.576Z,100445.19
2023-04-16T03:11:21.465Z,100449.98
2023-04-16T03:16:23.292Z,100454.02
2023-04-16T03:21:27.246Z,100454.34
2023-04-16T03:26:29.434Z,100457.94
2023-04-16T03:31:31.607Z,100454.22
2023-04-16T03:36:33.700Z,100456.66
2023-04-16T03:41:35.499Z,100461.64
2023-04-16T03:46:37.277Z,100467.35
2023-04-16T03:51:39.124Z,100469.98
2023-04-16T03:56:41.625Z,100466.45
2023-04-16T04:01:43.840Z,100473.31
2023-04-16T04:06:46.706Z,100476.70
2023-04-16T04:11:48.479Z,100483.96
2023-04-16T04:16:50.353Z,100483.11
2023-04-16T04:21:52.539Z,100489.30
2023-04-16T04:26:54.214Z,100493.50
2023-04-16T04:31:56.113Z,100498.66
2023-04-16T04:36:59.102Z,100502.48
2023-04-16T04:42:02.914Z,100504.61
2023-04-16T04:47:04.680Z,100507.39
2023-04-16T04:52:06.573Z,100512.40
2023-04-16T04:57:08.435Z,100519.09
2023-04-16T05:02:10.357Z,100523.92
2023-04-16T05:07:12.054Z,100524.19
2023-04-16T05:12:13.967Z,100526.55
2023-04-16T05:17:16.046Z,100525.48
2023-04-16T05:22:18.555Z,100529.97
2023-04-16T05:27:20.419Z,100531.11
2023-04-16T05:32:24.772Z,100538.98
2023-04-16T05:37:26.483Z,100544.92
2023-04-16T05:42:28.418Z,100552.92
2023-04-16T05:47:30.434Z,100548.94
2023-04-16T05:52:32.358Z,100553.68
2023-04-16T05:57:34.025Z,100551.11
2023-04-16T06:02:35.956Z,100557.14
2023-04-16T06:07:38.093Z,100560.81
2023-04-16T06:12:40.379Z,100561.98
2023-04-16T06:17:42.234Z,100564.14
2023-04-16T06:22:44.587Z,100571.09
2023-04-16T06:27:47.548Z,100572.45
2023-04-16T06:32:49.866Z,100571.30
2023-04-16T06:37:51.812Z,100571.79
2023-04-16T06:42:53.900Z,100579.05
2023-04-16T06:47:55.952Z,100574.84
2023-04-16T06:52:58.056Z,100575.11
2023-04-16T06:57:59.828Z,100577.63
2023-04-16T07:03:02.931Z,100582.87
2023-04-16T07:08:05.340Z,100588.31
2023-04-16T07:13:08.222Z,100583.38
2023-04-16T07:18:11.077Z,100588.36
2023-04-16T07:23:13.518Z,100600.83
2023-04-16T07:28:18.289Z,100601.89
2023-04-16T07:33:20.652Z,100605.36
2023-04-16T07:38:22.523Z,100608.11
2023-04-16T07:43:24.406Z,100609.73
2023-04-16T07:48:26.380Z,100608.54
2023-04-16T07:53:29.172Z,100610.69
2023-04-16T07:58:31.154Z,100611.29
2023-04-16T08:03:33.199Z,100614.69
2023-04-16T08:08:36.448Z,100616.23
2023-04-16T08:13:38.228Z,100623.83
2023-04-16T08:18:40.720Z,100623.98
2023-04-16T08:23:43.031Z,100620.98
2023-04-16T08:28:46.006Z,100626.80
2023-04-16T08:33:47.879Z,100636.61
2023-04-16T08:38:51.911Z,100643.39
2023-04-16T08:43:59.360Z,100645.23
2023-04-16T08:49:03.203Z,100649.36
2023-04-16T08:54:09.030Z,100653.86
2023-04-16T08:59:11.515Z,100658.89
2023-04-16T09:04:16.384Z,100663.77
2023-04-16T09:09:20.879Z,100668.24
2023-04-16T09:14:22.843Z,100672.48
2023-04-16T09:19:25.051Z,100673.80
2023-04-16T09:24:28.659Z,100677.75
2023-04-16T09:29:38.836Z,100677.71
2023-04-16T09:35:00.198Z,100686.50
2023-04-16T09:40:05.061Z,100686.13
2023-04-16T09:45:09.045Z,100686.63
2023-04-16T09:50:19.580Z,100690.40
2023-04-16T09:55:27.254Z,100700.46
2023-04-16T10:00:31.105Z,100704.35
2023-04-16T10:05:34.184Z,100708.98
2023-04-16T10:10:37.597Z,100711.71
2023-04-16T10:15:41.133Z,100717.96
2023-04-16T10:20:45.124Z,100722.27
2023-04-16T10:25:49.380Z,100721.90
2023-04-16T10:30:53.572Z,100727.23
2023-04-16T10:36:15.042Z,100729.11
2023-04-16T10:41:19.538Z,100731.75
2023-04-16T10:46:26.431Z,100738.80
2023-04-16T10:51:35.401Z,100739.97
2023-04-16T10:56:37.769Z,100737.66
2023-04-16T11:01:44.156Z,100745.63
2023-04-16T11:07:05.951Z,100745.83
2023-04-16T11:12:12.710Z,100753.08
2023-04-16T11:17:16.599Z,100751.55
2023-04-16T11:22:18.297Z,100757.27
2023-04-16T11:27:20.388Z,100762.75
2023-04-16T11:32:22.638Z,100760.98
2023-04-16T11:37:35.527Z,100762.59
2023-04-16T11:42:40.212Z,100759.91
2023-04-16T11:47:47.185Z,100766.31
2023-04-16T11:52:50.975Z,100771.31
2023-04-16T11:57:53.076Z,100777.19
2023-04-16T12:02:55.663Z,100784.90
2023-04-16T12:07:59.266Z,100791.98
2023-04-16T12:13:15.171Z,100791.23
2023-04-16T12:18:20.368Z,100794.52
2023-04-16T12:23:28.828Z,100795.72
2023-04-16T12:28:33.589Z,100797.37
2023-04-16T12:33:35.942Z,100804.45
2023-04-16T12:38:38.264Z,100800.55
2023-04-16T12:43:40.247Z,100793.29
2023-04-16T12:48:43.147Z,100794.15
2023-04-16T12:53:45.257Z,100797.19
2023-04-16T12:58:50.385Z,100792.85
2023-04-16T13:03:52.570Z,100793.31
2023-04-16T13:08:54.848Z,100798.20
2023-04-16T13:13:57.444Z,100798.95
2023-04-16T13:19:00.246Z,100799.29
2023-04-16T13:24:04.505Z,100800.73
2023-04-16T13:29:07.972Z,100796.95
2023-04-16T13:34:11.123Z,100800.83
2023-04-16T13:39:14.006Z,100806.83
2023-04-16T13:44:16.498Z,100811.11
2023-04-16T13:49:19.092Z,100811.04
2023-04-16T13:54:20.899Z,100807.84
2023-04-16T13:59:24.334Z,100809.36
2023-04-16T14:04:26.674Z,100813.27
2023-04-16T14:09:29.046Z,100812.61
2023-04-16T14:14:31.531Z,100814.42
2023-04-16T14:19:33.514Z,100813.63
2023-04-16T14:24:35.913Z,100814.52
2023-04-16T14:29:38.192Z,100811.72
2023-04-16T14:34:40.068Z,100809.46
2023-04-16T14:39:42.042Z,100811.70
2023-04-16T14:44:44.124Z,100810.46
2023-04-16T14:49:46.325Z,100809.55
2023-04-16T14:54:48.183Z,100818.15
2023-04-16T14:59:50.279Z,100824.74
2023-04-16T15:04:52.245Z,100829.80
2023-04-16T15:09:55.043Z,100834.70
2023-04-16T15:14:57.038Z,100833.67
2023-04-16T15:19:59.113Z,100829.25
2023-04-16T15:25:02.546Z,100833.57
2023-04-16T15:30:09.450Z,100833.52
2023-04-16T15:35:13.038Z,100841.80
2023-04-16T15:40:15.738Z,100838.59
2023-04-16T15:45:18.030Z,100844.49
2023-04-16T15:50:20.622Z,100844.27
2023-04-16T15:55:22.555Z,100847.92
2023-04-16T16:00:25.670Z,100851.25
2023-04-16T16:05:27.682Z,100854.16
2023-04-16T16:10:29.658Z,100849.98
2023-04-16T16:15:32.039Z,100858.42
2023-04-16T16:20:34.643Z,100865.14
2023-04-16T16:25:37.552Z,100868.20
2023-04-16T16:30:40.536Z,100869.14
2023-04-16T16:35:42.314Z,100869.73
2023-04-16T16:40:44.092Z,100868.78
2023-04-16T16:45:46.299Z,100876.41
2023-04-16T16:50:48.150Z,100880.88
2023-04-16T16:55:49.921Z,100882.04
2023-04-16T17:00:52.592Z,100885.27
2023-04-16T17:05:54.909Z,100884.48
2023-04-16T17:10:56.687Z,100880.80
2023-04-16T17:15:58.604Z,100887.77
2023-04-16T17:21:01.263Z,100897.72
2023-04-16T17:26:03.270Z,100901.60
2023-04-16T17:31:08.289Z,100900.71
2023-04-16T17:36:10.587Z,100902.41
2023-04-16T17:41:12.971Z,100904.77
2023-04-16T17:46:14.934Z,100912.27
2023-04-16T17:51:17.133Z,100913.25
2023-04-16T17:56:19.726Z,100915.40
2023-04-16T18:01:21.920Z,100925.04
2023-04-16T18:06:23.882Z,100932.56
2023-04-16T18:11:28.448Z,100937.66
2023-04-16T18:16:32.960Z,100945.73
2023-04-16T18:21:36.069Z,100946.95
2023-04-16T18:26:41.061Z,100946.84
2023-04-16T18:31:44.155Z,100948.90
2023-04-16T18:36:46.400Z,100958.21
2023-04-16T18:41:48.184Z,100956.13
2023-04-16T18:46:50.318Z,100958.39
2023-04-16T18:51:55.626Z,100957.59
2023-04-16T18:56:59.725Z,100964.70
2023-04-16T19:02:03.577Z,100962.38
2023-04-16T19:07:07.299Z,100965.41
2023-04-16T19:12:10.199Z,100967.96
2023-04-16T19:17:13.413Z,100971.41
2023-04-16T19:22:15.576Z,100968.35
2023-04-16T19:27:17.896Z,100965.43
2023-04-16T19:32:20.672Z,100964.85
2023-04-16T19:37:24.429Z,100963.13
2023-04-16T19:42:27.289Z,100964.73
2023-04-16T19:47:30.105Z,100972.08
2023-04-16T19:52:38.324Z,100965.14
2023-04-16T19:57:40.615Z,100962.36
2023-04-16T20:02:43.373Z,100957.50
2023-04-16T20:07:45.580Z,100954.94
2023-04-16T20:12:47.579Z,100951.42
2023-04-16T20:17:49.741Z,100952.62
2023-04-16T20:22:52.544Z,100952.15
2023-04-16T20:27:55.006Z,100955.34
2023-04-16T20:32:58.095Z,100953.19
2023-04-16T20:38:00.949Z,100954.56
2023-04-16T20:43:03.027Z,100960.06
2023-04-16T20:48:05.360Z,100964.95
2023-04-16T20:53:07.075Z,100973.12
2023-04-16T20:58:08.853Z,100974.66
2023-04-16T21:03:11.407Z,100975.27
2023-04-16T21:08:13.735Z,100978.05
2023-04-16T21:13:16.542Z,100982.92
2023-04-16T21:18:18.316Z,100986.17
2023-04-16T21:23:20.299Z,100988.01
2023-04-16T21:28:22.063Z,100990.52
2023-04-16T21:33:24.042Z,100992.91
2023-04-16T21:38:26.026Z,100989.44
2023-04-16T21:43:31.531Z,100987.17
2023-04-16T21:48:33.253Z,100988.86
2023-04-16T21:53:36.413Z,100990.73
2023-04-16T21:58:38.562Z,100990.23
2023-04-16T22:03:41.010Z,100993.07
2023-04-16T22:08:43.127Z,100993.67
2023-04-16T22:13:47.354Z,100994.68
2023-04-16T22:18:49.540Z,100992.12
2023-04-16T22:23:51.415Z,100989.55
2023-04-16T22:28:53.087Z,100990.20
2023-04-16T22:33:55.060Z,100988.58
2023-04-16T22:38:56.732Z,100986.59
2023-04-16T22:43:58.401Z,100988.39
2023-04-16T22:49:00.508Z,100995.30
2023-04-16T22:54:02.373Z,100993.02
2023-04-16T22:59:05.566Z,100997.09
2023-04-16T23:04:07.566Z,101000.95
2023-04-16T23:09:10.588Z,101001.25
2023-04-16T23:14:15.005Z,101001.83
2023-04-16T23:19:18.580Z,101001.38
2023-04-16T23:24:20.381Z,100999.98
2023-04-16T23:29:22.262Z,101004.06
2023-04-16T23:34:24.544Z,101009.09
2023-04-16T23:39:26.831Z,101012.61
2023-04-16T23:44:28.615Z,101011.77
2023-04-16T23:49:30.387Z,101014.34
2023-04-16T23:54:32.260Z,101008.75
2023-04-16T23:59:34.038Z,101008.33
